sensor_id;sensor_type;location;lat;lon;timestamp;P1;P4;P2;P0;N10;N4;N25;N1;N05;TS
77661;SPS30;69666;52.136;5.424;2023-11-21T00:00:18;nan;nan;nan;nan;nan;nan;nan;nan;nan;nan
77661;SPS30;69666;52.136;5.424;2023-11-21T00:02:47;nan;nan;nan;nan;nan;nan;nan;nan;nan;nan
77661;SPS30;69666;52.136;5.424;2023-11-21T00:05:17;nan;nan;nan;nan;nan;nan;nan;nan;nan;nan
77661;SPS30;69666;52.136;5.424;2023-11-21T00:07:46;nan;nan;nan;nan;nan;nan;nan;nan;nan;nan
77661;SPS30;69666;52.136;5.424;2023-11-21T00:10:16;nan;nan;nan;nan;nan;nan;nan;nan;nan;nan
77661;SPS30;69666;52.136;5.424;2023-11-21T00:12:45;nan;nan;nan;nan;nan;nan;nan;nan;nan;nan
77661;SPS30;69666;52.136;5.424;2023-11-21T00:15:15;nan;nan;nan;nan;nan;nan;nan;nan;nan;nan
77661;SPS30;69666;52.136;5.424;2023-11-21T00:17:46;nan;nan;nan;nan;nan;nan;nan;nan;nan;nan
77661;SPS30;69666;52.136;5.424;2023-11-21T00:20:15;nan;nan;nan;nan;nan;nan;nan;nan;nan;nan
77661;SPS30;69666;52.136;5.424;2023-11-21T00:22:45;nan;nan;nan;nan;nan;nan;nan;nan;nan;nan
77661;SPS30;69666;52.136;5.424;2023-11-21T00:25:15;nan;nan;nan;nan;nan;nan;nan;nan;nan;nan
77661;SPS30;69666;52.136;5.424;2023-11-21T00:27:45;nan;nan;nan;nan;nan;nan;nan;nan;nan;nan
77661;SPS30;69666;52.136;5.424;2023-11-21T00:30:14;nan;nan;nan;nan;nan;nan;nan;nan;nan;nan
77661;SPS30;69666;52.136;5.424;2023-11-21T00:32:44;nan;nan;nan;nan;nan;nan;nan;nan;nan;nan
77661;SPS30;69666;52.136;5.424;2023-11-21T00:35:13;nan;nan;nan;nan;nan;nan;nan;nan;nan;nan
77661;SPS30;69666;52.136;5.424;2023-11-21T00:37:43;nan;nan;nan;nan;nan;nan;nan;nan;nan;nan
77661;SPS30;69666;52.136;5.424;2023-11-21T00:40:12;nan;nan;nan;nan;nan;nan;nan;nan;nan;nan
77661;SPS30;69666;52.136;5.424;2023-11-21T00:42:43;nan;nan;nan;nan;nan;nan;nan;nan;nan;nan
77661;SPS30;69666;52.136;5.424;2023-11-21T00:45:12;nan;nan;nan;nan;nan;nan;nan;nan;nan;nan
77661;SPS30;69666;52.136;5.424;2023-11-21T00:47:42;nan;nan;nan;nan;nan;nan;nan;nan;nan;nan
77661;SPS30;69666;52.136;5.424;2023-11-21T00:50:11;nan;nan;nan;nan;nan;nan;nan;nan;nan;nan
77661;SPS30;69666;52.136;5.424;2023-11-21T00:52:41;nan;nan;nan;nan;nan;nan;nan;nan;nan;nan
77661;SPS30;69666;52.136;5.424;2023-11-21T00:55:10;nan;nan;nan;nan;nan;nan;nan;nan;nan;nan
77661;SPS30;69666;52.136;5.424;2023-11-21T00:57:40;nan;nan;nan;nan;nan;nan;nan;nan;nan;nan
77661;SPS30;69666;52.136;5.424;2023-11-21T01:00:10;nan;nan;nan;nan;nan;nan;nan;nan;nan;nan
77661;SPS30;69666;52.136;5.424;2023-11-21T01:02:44;nan;nan;nan;nan;nan;nan;nan;nan;nan;nan
77661;SPS30;69666;52.136;5.424;2023-11-21T01:05:15;nan;nan;nan;nan;nan;nan;nan;nan;nan;nan
77661;SPS30;69666;52.136;5.424;2023-11-21T01:07:46;nan;nan;nan;nan;nan;nan;nan;nan;nan;nan
77661;SPS30;69666;52.136;5.424;2023-11-21T01:10:15;nan;nan;nan;nan;nan;nan;nan;nan;nan;nan
77661;SPS30;69666;52.136;5.424;2023-11-21T01:12:45;nan;nan;nan;nan;nan;nan;nan;nan;nan;nan
77661;SPS30;69666;52.136;5.424;2023-11-21T01:15:16;13.74;13.67;13.54;12.66;101.08;101.06;101.00;100.49;87.30;0.53
77661;SPS30;69666;52.136;5.424;2023-11-21T01:17:47;13.55;13.48;13.32;12.42;99.16;99.13;99.07;98.53;85.54;0.55
77661;SPS30;69666;52.136;5.424;2023-11-21T01:20:16;13.07;13.02;12.91;12.09;96.52;96.50;96.45;95.98;83.42;0.53
77661;SPS30;69666;52.136;5.424;2023-11-21T01:22:46;nan;nan;nan;nan;nan;nan;nan;nan;nan;nan
77661;SPS30;69666;52.136;5.424;2023-11-21T01:25:16;nan;nan;nan;nan;nan;nan;nan;nan;nan;nan
77661;SPS30;69666;52.136;5.424;2023-11-21T01:27:46;nan;nan;nan;nan;nan;nan;nan;nan;nan;nan
77661;SPS30;69666;52.136;5.424;2023-11-21T01:30:16;nan;nan;nan;nan;nan;nan;nan;nan;nan;nan
77661;SPS30;69666;52.136;5.424;2023-11-21T01:32:46;nan;nan;nan;nan;nan;nan;nan;nan;nan;nan
77661;SPS30;69666;52.136;5.424;2023-11-21T01:35:15;nan;nan;nan;nan;nan;nan;nan;nan;nan;nan
77661;SPS30;69666;52.136;5.424;2023-11-21T01:37:45;nan;nan;nan;nan;nan;nan;nan;nan;nan;nan
77661;SPS30;69666;52.136;5.424;2023-11-21T01:40:16;nan;nan;nan;nan;nan;nan;nan;nan;nan;nan
77661;SPS30;69666;52.136;5.424;2023-11-21T01:42:45;nan;nan;nan;nan;nan;nan;nan;nan;nan;nan
77661;SPS30;69666;52.136;5.424;2023-11-21T01:45:15;nan;nan;nan;nan;nan;nan;nan;nan;nan;nan
77661;SPS30;69666;52.136;5.424;2023-11-21T01:47:45;nan;nan;nan;nan;nan;nan;nan;nan;nan;nan
77661;SPS30;69666;52.136;5.424;2023-11-21T01:50:15;nan;nan;nan;nan;nan;nan;nan;nan;nan;nan
77661;SPS30;69666;52.136;5.424;2023-11-21T01:52:46;nan;nan;nan;nan;nan;nan;nan;nan;nan;nan
77661;SPS30;69666;52.136;5.424;2023-11-21T01:55:17;nan;nan;nan;nan;nan;nan;nan;nan;nan;nan
77661;SPS30;69666;52.136;5.424;2023-11-21T01:57:54;nan;nan;nan;nan;nan;nan;nan;nan;nan;nan
77661;SPS30;69666;52.136;5.424;2023-11-21T02:00:27;nan;nan;nan;nan;nan;nan;nan;nan;nan;nan
77661;SPS30;69666;52.136;5.424;2023-11-21T02:02:57;nan;nan;nan;nan;nan;nan;nan;nan;nan;nan
77661;SPS30;69666;52.136;5.424;2023-11-21T02:05:27;nan;nan;nan;nan;nan;nan;nan;nan;nan;nan
77661;SPS30;69666;52.136;5.424;2023-11-21T02:07:58;nan;nan;nan;nan;nan;nan;nan;nan;nan;nan
77661;SPS30;69666;52.136;5.424;2023-11-21T02:10:28;nan;nan;nan;nan;nan;nan;nan;nan;nan;nan
77661;SPS30;69666;52.136;5.424;2023-11-21T02:12:59;nan;nan;nan;nan;nan;nan;nan;nan;nan;nan
77661;SPS30;69666;52.136;5.424;2023-11-21T02:15:30;nan;nan;nan;nan;nan;nan;nan;nan;nan;nan
77661;SPS30;69666;52.136;5.424;2023-11-21T02:18:00;nan;nan;nan;nan;nan;nan;nan;nan;nan;nan
77661;SPS30;69666;52.136;5.424;2023-11-21T02:20:30;nan;nan;nan;nan;nan;nan;nan;nan;nan;nan
77661;SPS30;69666;52.136;5.424;2023-11-21T02:23:04;nan;nan;nan;nan;nan;nan;nan;nan;nan;nan
77661;SPS30;69666;52.136;5.424;2023-11-21T02:25:34;nan;nan;nan;nan;nan;nan;nan;nan;nan;nan
77661;SPS30;69666;52.136;5.424;2023-11-21T02:28:05;nan;nan;nan;nan;nan;nan;nan;nan;nan;nan
77661;SPS30;69666;52.136;5.424;2023-11-21T02:30:35;nan;nan;nan;nan;nan;nan;nan;nan;nan;nan
77661;SPS30;69666;52.136;5.424;2023-11-21T02:33:05;nan;nan;nan;nan;nan;nan;nan;nan;nan;nan
77661;SPS30;69666;52.136;5.424;2023-11-21T02:35:35;nan;nan;nan;nan;nan;nan;nan;nan;nan;nan
77661;SPS30;69666;52.136;5.424;2023-11-21T02:38:05;nan;nan;nan;nan;nan;nan;nan;nan;nan;nan
77661;SPS30;69666;52.136;5.424;2023-11-21T02:40:34;nan;nan;nan;nan;nan;nan;nan;nan;nan;nan
77661;SPS30;69666;52.136;5.424;2023-11-21T02:43:04;12.36;12.26;12.05;11.16;89.10;89.07;88.99;88.43;76.63;0.57
77661;SPS30;69666;52.136;5.424;2023-11-21T02:45:33;12.90;12.79;12.59;11.66;93.15;93.12;93.04;92.46;80.14;0.56
77661;SPS30;69666;52.136;5.424;2023-11-21T02:48:04;13.00;12.86;12.57;11.56;92.31;92.28;92.18;91.51;79.15;0.57
77661;SPS30;69666;52.136;5.424;2023-11-21T02:50:33;nan;nan;nan;nan;nan;nan;nan;nan;nan;nan
77661;SPS30;69666;52.136;5.424;2023-11-21T02:53:03;nan;nan;nan;nan;nan;nan;nan;nan;nan;nan
77661;SPS30;69666;52.136;5.424;2023-11-21T02:55:35;nan;nan;nan;nan;nan;nan;nan;nan;nan;nan
77661;SPS30;69666;52.136;5.424;2023-11-21T02:58:05;nan;nan;nan;nan;nan;nan;nan;nan;nan;nan
77661;SPS30;69666;52.136;5.424;2023-11-21T03:00:34;nan;nan;nan;nan;nan;nan;nan;nan;nan;nan
77661;SPS30;69666;52.136;5.424;2023-11-21T03:03:04;nan;nan;nan;nan;nan;nan;nan;nan;nan;nan
77661;SPS30;69666;52.136;5.424;2023-11-21T03:05:33;nan;nan;nan;nan;nan;nan;nan;nan;nan;nan
77661;SPS30;69666;52.136;5.424;2023-11-21T03:08:04;nan;nan;nan;nan;nan;nan;nan;nan;nan;nan
77661;SPS30;69666;52.136;5.424;2023-11-21T03:10:34;nan;nan;nan;nan;nan;nan;nan;nan;nan;nan
77661;SPS30;69666;52.136;5.424;2023-11-21T03:13:03;nan;nan;nan;nan;nan;nan;nan;nan;nan;nan
77661;SPS30;69666;52.136;5.424;2023-11-21T03:15:33;nan;nan;nan;nan;nan;nan;nan;nan;nan;nan
77661;SPS30;69666;52.136;5.424;2023-11-21T03:18:03;nan;nan;nan;nan;nan;nan;nan;nan;nan;nan
77661;SPS30;69666;52.136;5.424;2023-11-21T03:20:33;nan;nan;nan;nan;nan;nan;nan;nan;nan;nan
77661;SPS30;69666;52.136;5.424;2023-11-21T03:23:03;nan;nan;nan;nan;nan;nan;nan;nan;nan;nan
77661;SPS30;69666;52.136;5.424;2023-11-21T03:25:33;11.78;11.62;11.29;10.30;82.29;82.26;82.15;81.46;70.31;0.56
77661;SPS30;69666;52.136;5.424;2023-11-21T03:28:02;12.54;12.42;12.17;11.23;89.70;89.67;89.59;88.97;77.02;0.55
77661;SPS30;69666;52.136;5.424;2023-11-21T03:30:32;12.26;12.10;11.77;10.76;85.95;85.91;85.81;85.11;73.49;0.57
77661;SPS30;69666;52.136;5.424;2023-11-21T03:33:02;11.72;11.58;11.29;10.34;82.58;82.55;82.45;81.80;70.68;0.56
77661;SPS30;69666;52.136;5.424;2023-11-21T03:35:31;12.19;12.04;11.75;10.78;86.13;86.10;86.01;85.35;73.78;0.56
77661;SPS30;69666;52.136;5.424;2023-11-21T03:38:01;11.91;11.72;11.32;10.26;81.93;81.90;81.77;81.00;69.77;0.57
77661;SPS30;69666;52.136;5.424;2023-11-21T03:40:30;12.07;11.90;11.54;10.50;83.89;83.86;83.74;83.01;71.59;0.57
77661;SPS30;69666;52.136;5.424;2023-11-21T03:43:01;12.14;12.00;11.71;10.74;85.80;85.77;85.67;85.01;73.48;0.56
77661;SPS30;69666;52.136;5.424;2023-11-21T03:45:30;nan;nan;nan;nan;nan;nan;nan;nan;nan;nan
77661;SPS30;69666;52.136;5.424;2023-11-21T03:48:01;11.35;11.21;10.94;10.04;80.18;80.15;80.07;79.45;68.68;0.55
77661;SPS30;69666;52.136;5.424;2023-11-21T03:50:30;11.65;11.49;11.18;10.21;81.54;81.51;81.41;80.73;69.70;0.57
77661;SPS30;69666;52.136;5.424;2023-11-21T03:53:00;11.58;11.45;11.19;10.29;82.20;82.18;82.09;81.48;70.48;0.56
77661;SPS30;69666;52.136;5.424;2023-11-21T03:55:30;11.51;11.35;11.02;10.05;80.30;80.26;80.16;79.48;68.59;0.55
77661;SPS30;69666;52.136;5.424;2023-11-21T03:57:59;11.67;11.54;11.29;10.38;82.93;82.90;82.81;82.21;71.11;0.51
77661;SPS30;69666;52.136;5.424;2023-11-21T04:00:29;11.45;11.31;11.02;10.09;80.58;80.55;80.46;79.81;68.95;0.55
77661;SPS30;69666;52.136;5.424;2023-11-21T04:02:58;11.44;11.31;11.05;10.14;80.99;80.96;80.87;80.26;69.38;0.55
77661;SPS30;69666;52.136;5.424;2023-11-21T04:05:28;11.21;11.09;10.86;10.00;79.88;79.86;79.78;79.21;68.54;0.55
77661;SPS30;69666;52.136;5.424;2023-11-21T04:07:58;11.31;11.19;10.94;10.06;80.35;80.32;80.24;79.65;68.89;0.55
77661;SPS30;69666;52.136;5.424;2023-11-21T04:10:28;10.49;10.40;10.20;9.42;75.24;75.22;75.15;74.64;64.64;0.54
77661;SPS30;69666;52.136;5.424;2023-11-21T04:12:58;10.60;10.55;10.45;9.77;78.03;78.01;77.96;77.57;67.40;0.52
77661;SPS30;69666;52.136;5.424;2023-11-21T04:15:27;11.39;11.28;11.06;10.22;81.60;81.57;81.49;80.94;70.09;0.54
77661;SPS30;69666;52.136;5.424;2023-11-21T04:17:57;11.25;11.15;10.94;10.11;80.75;80.72;80.65;80.12;69.39;0.56
77661;SPS30;69666;52.136;5.424;2023-11-21T04:20:27;10.47;10.40;10.25;9.52;76.02;76.00;75.95;75.50;65.48;0.54
77661;SPS30;69666;52.136;5.424;2023-11-21T04:22:56;12.12;11.98;11.70;10.75;85.89;85.86;85.77;85.13;73.61;0.55
77661;SPS30;69666;52.136;5.424;2023-11-21T04:25:26;11.01;10.92;10.74;9.95;79.45;79.43;79.36;78.86;68.35;0.53
77661;SPS30;69666;52.136;5.424;2023-11-21T04:27:55;10.88;10.80;10.63;9.86;78.71;78.68;78.62;78.13;67.74;0.55
77661;SPS30;69666;52.136;5.424;2023-11-21T04:30:25;11.25;11.18;11.03;10.26;81.93;81.91;81.86;81.39;70.62;0.54
77661;SPS30;69666;52.136;5.424;2023-11-21T04:32:55;11.69;11.62;11.49;10.72;85.61;85.59;85.53;85.08;73.87;0.54
77661;SPS30;69666;52.136;5.424;2023-11-21T04:35:24;11.80;11.66;11.39;10.46;83.56;83.53;83.44;82.82;71.61;0.58
77661;SPS30;69666;52.136;5.424;2023-11-21T04:37:54;11.49;11.41;11.25;10.46;83.50;83.47;83.41;82.92;71.93;0.54
77661;SPS30;69666;52.136;5.424;2023-11-21T04:40:25;11.13;11.05;10.89;10.11;80.75;80.72;80.66;80.18;69.53;0.56
77661;SPS30;69666;52.136;5.424;2023-11-21T04:42:54;11.21;11.15;11.03;10.29;82.14;82.12;82.07;81.63;70.88;0.55
77661;SPS30;69666;52.136;5.424;2023-11-21T04:45:24;10.69;10.65;10.57;9.90;79.07;79.05;79.02;78.64;68.36;0.53
77661;SPS30;69666;52.136;5.424;2023-11-21T04:47:54;11.07;11.04;10.98;10.32;82.40;82.39;82.35;82.00;71.33;0.51
77661;SPS30;69666;52.136;5.424;2023-11-21T04:50:24;10.78;10.73;10.63;9.93;79.32;79.30;79.26;78.86;68.51;0.52
77661;SPS30;69666;52.136;5.424;2023-11-21T04:52:55;10.79;10.74;10.64;9.95;79.46;79.44;79.39;79.00;68.64;0.52
77661;SPS30;69666;52.136;5.424;2023-11-21T04:55:24;10.86;10.83;10.78;10.13;80.91;80.90;80.87;80.52;70.06;0.52
77661;SPS30;69666;52.136;5.424;2023-11-21T04:57:55;10.64;10.62;10.58;9.95;79.46;79.45;79.42;79.09;68.84;0.52
77661;SPS30;69666;52.136;5.424;2023-11-21T05:00:25;11.09;11.06;10.99;10.32;82.40;82.39;82.35;81.99;71.31;0.53
77661;SPS30;69666;52.136;5.424;2023-11-21T05:02:55;11.65;11.59;11.46;10.69;85.39;85.37;85.32;84.87;73.70;0.54
77661;SPS30;69666;52.136;5.424;2023-11-21T05:05:25;11.66;11.60;11.47;10.69;85.38;85.36;85.31;84.85;73.67;0.54
77661;SPS30;69666;52.136;5.424;2023-11-21T05:07:54;11.88;11.82;11.71;10.94;87.37;87.35;87.30;86.85;75.45;0.54
77661;SPS30;69666;52.136;5.424;2023-11-21T05:10:24;11.68;11.65;11.58;10.87;86.83;86.81;86.78;86.39;75.15;0.53
77661;SPS30;69666;52.136;5.424;2023-11-21T05:12:53;11.59;11.56;11.49;10.79;86.15;86.13;86.10;85.72;74.56;0.52
77661;SPS30;69666;52.136;5.424;2023-11-21T05:15:23;12.08;12.04;11.97;11.24;89.73;89.71;89.67;89.27;77.64;0.53
77661;SPS30;69666;52.136;5.424;2023-11-21T05:17:53;12.32;12.25;12.12;11.31;90.34;90.32;90.26;89.78;77.97;0.55
77661;SPS30;69666;52.136;5.424;2023-11-21T05:20:22;11.82;11.75;11.62;10.84;86.54;86.52;86.47;86.00;74.67;0.55
77661;SPS30;69666;52.136;5.424;2023-11-21T05:22:52;11.67;11.61;11.48;10.72;85.59;85.57;85.51;85.06;73.87;0.54
77661;SPS30;69666;52.136;5.424;2023-11-21T05:25:22;11.64;11.61;11.54;10.83;86.49;86.47;86.44;86.05;74.84;0.53
77661;SPS30;69666;52.136;5.424;2023-11-21T05:27:51;11.39;11.33;11.20;10.45;83.48;83.46;83.41;82.96;72.04;0.55
77661;SPS30;69666;52.136;5.424;2023-11-21T05:30:22;11.52;11.48;11.41;10.71;85.51;85.49;85.46;85.07;73.98;0.53
77661;SPS30;69666;52.136;5.424;2023-11-21T05:32:52;11.19;11.15;11.08;10.40;83.00;82.99;82.95;82.57;71.81;0.53
77661;SPS30;69666;52.136;5.424;2023-11-21T05:35:21;11.26;11.24;11.21;10.56;84.35;84.34;84.31;83.97;73.11;0.52
77661;SPS30;69666;52.136;5.424;2023-11-21T05:37:51;10.96;10.93;10.86;10.19;81.39;81.38;81.34;80.97;70.42;0.53
77661;SPS30;69666;52.136;5.424;2023-11-21T05:40:20;10.92;10.85;10.70;9.95;79.47;79.45;79.40;78.94;68.49;0.54
77661;SPS30;69666;52.136;5.424;2023-11-21T05:42:50;11.14;11.10;11.03;10.35;82.63;82.61;82.57;82.20;71.48;0.52
77661;SPS30;69666;52.136;5.424;2023-11-21T05:45:20;10.73;10.70;10.61;9.95;79.41;79.39;79.35;78.98;68.66;0.53
77661;SPS30;69666;52.136;5.424;2023-11-21T05:47:50;10.98;10.95;10.87;10.19;81.40;81.39;81.35;80.97;70.41;0.53
77661;SPS30;69666;52.136;5.424;2023-11-21T05:50:19;10.63;10.57;10.44;9.72;77.63;77.61;77.56;77.13;66.94;0.55
77661;SPS30;69666;52.136;5.424;2023-11-21T05:52:51;10.72;10.68;10.62;9.97;79.59;79.58;79.54;79.19;68.87;0.53
77661;SPS30;69666;52.136;5.424;2023-11-21T05:55:22;10.63;10.60;10.54;9.90;79.08;79.07;79.03;78.69;68.46;0.53
77661;SPS30;69666;52.136;5.424;2023-11-21T05:57:53;10.05;10.04;10.00;9.43;75.26;75.25;75.23;74.93;65.23;0.51
77661;SPS30;69666;52.136;5.424;2023-11-21T06:00:23;10.73;10.72;10.71;10.11;80.70;80.69;80.67;80.37;70.01;0.50
77661;SPS30;69666;52.136;5.424;2023-11-21T06:02:55;10.31;10.29;10.24;9.64;76.98;76.96;76.94;76.62;66.68;0.52
77661;SPS30;69666;52.136;5.424;2023-11-21T06:05:25;10.79;10.75;10.69;10.03;80.09;80.08;80.04;79.68;69.30;0.53
77661;SPS30;69666;52.136;5.424;2023-11-21T06:07:55;10.65;10.62;10.56;9.91;79.17;79.15;79.12;78.77;68.51;0.53
77661;SPS30;69666;52.136;5.424;2023-11-21T06:10:27;10.87;10.81;10.69;9.97;79.65;79.63;79.58;79.15;68.73;0.55
77661;SPS30;69666;52.136;5.424;2023-11-21T06:12:57;11.09;11.00;10.81;10.00;79.85;79.83;79.76;79.24;68.65;0.56
77661;SPS30;69666;52.136;5.424;2023-11-21T06:15:30;10.79;10.72;10.58;9.84;78.60;78.58;78.53;78.08;67.75;0.55
77661;SPS30;69666;52.136;5.424;2023-11-21T06:17:59;10.83;10.77;10.66;9.95;79.42;79.40;79.35;78.93;68.55;0.55
77661;SPS30;69666;52.136;5.424;2023-11-21T06:20:29;11.26;11.21;11.11;10.39;82.93;82.91;82.87;82.45;71.64;0.54
77661;SPS30;69666;52.136;5.424;2023-11-21T06:22:59;10.54;10.51;10.43;9.78;78.07;78.06;78.02;77.65;67.51;0.53
77661;SPS30;69666;52.136;5.424;2023-11-21T06:25:31;11.31;11.26;11.17;10.46;83.54;83.52;83.48;83.07;72.21;0.53
77661;SPS30;69666;52.136;5.424;2023-11-21T06:28:04;11.45;11.37;11.20;10.40;83.07;83.05;82.98;82.49;71.54;0.56
77661;SPS30;69666;52.136;5.424;2023-11-21T06:30:34;11.68;11.58;11.38;10.53;84.09;84.07;83.99;83.45;72.31;0.57
77661;SPS30;69666;52.136;5.424;2023-11-21T06:33:03;11.34;11.21;10.96;10.08;80.52;80.49;80.41;79.81;69.03;0.57
77661;SPS30;69666;52.136;5.424;2023-11-21T06:35:34;11.30;11.23;11.09;10.32;82.44;82.42;82.36;81.90;71.07;0.56
77661;SPS30;69666;52.136;5.424;2023-11-21T06:38:03;11.51;11.44;11.29;10.51;83.90;83.87;83.82;83.34;72.32;0.56
77661;SPS30;69666;52.136;5.424;2023-11-21T06:40:33;11.22;11.16;11.03;10.29;82.19;82.17;82.12;81.68;70.92;0.54
77661;SPS30;69666;52.136;5.424;2023-11-21T06:43:03;10.87;10.81;10.69;9.97;79.62;79.60;79.55;79.13;68.71;0.55
77661;SPS30;69666;52.136;5.424;2023-11-21T06:45:34;10.87;10.82;10.73;10.04;80.21;80.19;80.15;79.76;69.31;0.53
77661;SPS30;69666;52.136;5.424;2023-11-21T06:48:04;11.30;11.26;11.16;10.45;83.44;83.42;83.38;82.97;72.11;0.53
77661;SPS30;69666;52.136;5.424;2023-11-21T06:50:33;11.15;11.11;11.03;10.34;82.53;82.51;82.47;82.08;71.36;0.54
77661;SPS30;69666;52.136;5.424;2023-11-21T06:53:04;10.48;10.46;10.41;9.78;78.10;78.08;78.05;77.71;67.62;0.52
77661;SPS30;69666;52.136;5.424;2023-11-21T06:55:35;10.64;10.61;10.54;9.89;78.99;78.97;78.94;78.58;68.34;0.54
77661;SPS30;69666;52.136;5.424;2023-11-21T06:58:05;10.45;10.40;10.29;9.61;76.76;76.74;76.69;76.29;66.26;0.54
77661;SPS30;69666;52.136;5.424;2023-11-21T07:00:34;10.04;10.02;9.98;9.39;74.97;74.95;74.93;74.61;64.93;0.52
77661;SPS30;69666;52.136;5.424;2023-11-21T07:03:04;10.27;10.24;10.18;9.57;76.40;76.38;76.35;76.02;66.13;0.53
77661;SPS30;69666;52.136;5.424;2023-11-21T07:05:34;10.08;10.07;10.03;9.45;75.46;75.44;75.42;75.11;65.39;0.51
77661;SPS30;69666;52.136;5.424;2023-11-21T07:08:05;9.78;9.75;9.69;9.10;72.66;72.64;72.61;72.29;62.88;0.53
77661;SPS30;69666;52.136;5.424;2023-11-21T07:10:35;9.58;9.55;9.48;8.89;70.97;70.96;70.93;70.59;61.38;0.53
77661;SPS30;69666;52.136;5.424;2023-11-21T07:13:05;9.64;9.58;9.47;8.83;70.48;70.46;70.41;70.03;60.79;0.55
77661;SPS30;69666;52.136;5.424;2023-11-21T07:15:40;9.40;9.37;9.30;8.72;69.63;69.62;69.59;69.26;60.23;0.53
77661;SPS30;69666;52.136;5.424;2023-11-21T07:18:11;9.43;9.41;9.35;8.79;70.16;70.14;70.11;69.80;60.72;0.52
77661;SPS30;69666;52.136;5.424;2023-11-21T07:20:40;9.49;9.47;9.42;8.86;70.76;70.74;70.72;70.42;61.27;0.52
77661;SPS30;69666;52.136;5.424;2023-11-21T07:23:10;9.74;9.71;9.63;9.02;72.06;72.05;72.01;71.67;62.30;0.53
77661;SPS30;69666;52.136;5.424;2023-11-21T07:25:40;9.36;9.34;9.30;8.75;69.84;69.83;69.80;69.51;60.48;0.53
77661;SPS30;69666;52.136;5.424;2023-11-21T07:28:10;9.24;9.22;9.18;8.64;68.99;68.98;68.95;68.67;59.76;0.51
77661;SPS30;69666;52.136;5.424;2023-11-21T07:30:40;9.25;9.22;9.16;8.59;68.59;68.58;68.54;68.23;59.33;0.52
77661;SPS30;69666;52.136;5.424;2023-11-21T07:33:10;9.43;9.39;9.30;8.69;69.43;69.41;69.37;69.02;59.97;0.54
77661;SPS30;69666;52.136;5.424;2023-11-21T07:35:39;9.35;9.30;9.21;8.60;68.66;68.65;68.61;68.25;59.28;0.54
77661;SPS30;69666;52.136;5.424;2023-11-21T07:38:09;10.44;10.39;10.28;9.60;76.69;76.67;76.63;76.23;66.21;0.52
77661;SPS30;69666;52.136;5.424;2023-11-21T07:40:38;9.40;9.38;9.34;8.79;70.20;70.19;70.17;69.88;60.82;0.50
77661;SPS30;69666;52.136;5.424;2023-11-21T07:43:08;8.77;8.75;8.71;8.19;65.38;65.37;65.35;65.07;56.62;0.51
77661;SPS30;69666;52.136;5.424;2023-11-21T07:45:38;8.83;8.81;8.77;8.26;65.92;65.91;65.89;65.61;57.10;0.52
77661;SPS30;69666;52.136;5.424;2023-11-21T07:48:08;10.72;10.70;10.64;10.00;79.84;79.82;79.79;79.45;69.12;0.51
77661;SPS30;69666;52.136;5.424;2023-11-21T07:50:38;12.23;12.23;12.23;11.57;92.35;92.34;92.32;92.00;80.17;0.41
77661;SPS30;69666;52.136;5.424;2023-11-21T07:53:08;7.61;7.61;7.61;7.20;57.46;57.46;57.44;57.24;49.88;0.46
77661;SPS30;69666;52.136;5.424;2023-11-21T07:55:37;7.12;7.11;7.11;6.72;53.67;53.66;53.65;53.46;46.58;0.49
77661;SPS30;69666;52.136;5.424;2023-11-21T07:58:07;7.53;7.52;7.51;7.08;56.50;56.49;56.47;56.25;48.98;0.50
77661;SPS30;69666;52.136;5.424;2023-11-21T08:00:36;6.83;6.82;6.79;6.40;51.06;51.05;51.03;50.83;44.24;0.50
77661;SPS30;69666;52.136;5.424;2023-11-21T08:03:07;6.58;6.57;6.56;6.18;49.32;49.31;49.30;49.10;42.75;0.51
77661;SPS30;69666;52.136;5.424;2023-11-21T08:05:36;6.70;6.68;6.64;6.23;49.74;49.73;49.71;49.48;43.04;0.53
77661;SPS30;69666;52.136;5.424;2023-11-21T08:08:06;6.85;6.83;6.79;6.37;50.86;50.85;50.83;50.60;44.01;0.53
77661;SPS30;69666;52.136;5.424;2023-11-21T08:10:35;6.37;6.37;6.36;6.00;47.92;47.91;47.90;47.72;41.57;0.50
77661;SPS30;69666;52.136;5.424;2023-11-21T08:13:06;7.07;7.05;7.03;6.62;52.88;52.87;52.86;52.65;45.83;0.52
77661;SPS30;69666;52.136;5.424;2023-11-21T08:15:36;7.36;7.34;7.30;6.86;54.75;54.74;54.72;54.48;47.39;0.53
77661;SPS30;69666;52.136;5.424;2023-11-21T08:18:06;6.82;6.80;6.74;6.31;50.39;50.38;50.36;50.11;43.56;0.54
77661;SPS30;69666;52.136;5.424;2023-11-21T08:20:35;7.26;7.23;7.15;6.67;53.27;53.26;53.23;52.95;45.98;0.55
77661;SPS30;69666;52.136;5.424;2023-11-21T08:23:07;7.29;7.28;7.24;6.81;54.38;54.37;54.34;54.11;47.08;0.52
77661;SPS30;69666;52.136;5.424;2023-11-21T08:25:37;7.12;7.10;7.04;6.59;52.66;52.64;52.62;52.37;45.52;0.53
77661;SPS30;69666;52.136;5.424;2023-11-21T08:28:06;6.64;6.63;6.60;6.22;49.64;49.63;49.61;49.40;43.00;0.51
77661;SPS30;69666;52.136;5.424;2023-11-21T08:30:36;6.60;6.58;6.54;6.14;49.04;49.03;49.00;48.78;42.43;0.52
77661;SPS30;69666;52.136;5.424;2023-11-21T08:33:06;6.49;6.46;6.42;6.02;48.04;48.03;48.01;47.78;41.54;0.53
77661;SPS30;69666;52.136;5.424;2023-11-21T08:35:36;6.33;6.32;6.29;5.91;47.16;47.15;47.13;46.93;40.83;0.53
77661;SPS30;69666;52.136;5.424;2023-11-21T08:38:06;6.83;6.81;6.78;6.39;50.99;50.98;50.96;50.75;44.17;0.51
77661;SPS30;69666;52.136;5.424;2023-11-21T08:40:37;7.28;7.27;7.24;6.82;54.42;54.41;54.39;54.16;47.14;0.51
77661;SPS30;69666;52.136;5.424;2023-11-21T08:43:07;7.33;7.31;7.29;6.86;54.76;54.75;54.73;54.50;47.44;0.51
77661;SPS30;69666;52.136;5.424;2023-11-21T08:45:36;6.61;6.59;6.55;6.14;49.05;49.04;49.01;48.79;42.43;0.53
77661;SPS30;69666;52.136;5.424;2023-11-21T08:48:06;7.09;7.06;7.00;6.54;52.24;52.22;52.19;51.93;45.12;0.52
77661;SPS30;69666;52.136;5.424;2023-11-21T08:50:36;6.94;6.91;6.85;6.42;51.23;51.21;51.19;50.94;44.27;0.52
77661;SPS30;69666;52.136;5.424;2023-11-21T08:53:05;7.35;7.30;7.19;6.68;53.37;53.35;53.32;53.00;45.97;0.53
77661;SPS30;69666;52.136;5.424;2023-11-21T08:55:35;7.36;7.33;7.25;6.78;54.12;54.11;54.08;53.80;46.73;0.53
77661;SPS30;69666;52.136;5.424;2023-11-21T08:58:05;9.68;9.64;9.56;8.96;71.52;71.50;71.46;71.12;61.82;0.51
77661;SPS30;69666;52.136;5.424;2023-11-21T09:00:34;7.56;7.53;7.47;6.99;55.85;55.84;55.81;55.54;48.28;0.52
77661;SPS30;69666;52.136;5.424;2023-11-21T09:03:05;8.12;8.07;7.97;7.41;59.20;59.19;59.15;58.81;51.03;0.54
77661;SPS30;69666;52.136;5.424;2023-11-21T09:05:39;8.65;8.55;8.35;7.68;61.32;61.30;61.23;60.77;52.56;0.57
77661;SPS30;69666;52.136;5.424;2023-11-21T09:08:09;8.37;8.31;8.17;7.58;60.51;60.50;60.45;60.07;52.07;0.54
77661;SPS30;69666;52.136;5.424;2023-11-21T09:10:39;9.73;9.65;9.48;8.78;70.15;70.13;70.07;69.62;60.34;0.55
77661;SPS30;69666;52.136;5.424;2023-11-21T09:13:10;9.71;9.64;9.51;8.84;70.62;70.60;70.55;70.14;60.85;0.54
77661;SPS30;69666;52.136;5.424;2023-11-21T09:15:40;10.70;10.63;10.48;9.74;77.77;77.75;77.69;77.24;67.00;0.54
77661;SPS30;69666;52.136;5.424;2023-11-21T09:18:13;10.96;10.84;10.61;9.76;77.99;77.96;77.88;77.32;66.90;0.55
77661;SPS30;69666;52.136;5.424;2023-11-21T09:20:43;11.09;10.97;10.74;9.89;78.98;78.95;78.87;78.31;67.76;0.56
77661;SPS30;69666;52.136;5.424;2023-11-21T09:23:13;11.99;11.89;11.69;10.82;86.43;86.40;86.33;85.78;74.33;0.54
77661;SPS30;69666;52.136;5.424;2023-11-21T09:25:43;13.05;12.97;12.82;11.96;95.47;95.44;95.38;94.87;82.36;0.53
77661;SPS30;69666;52.136;5.424;2023-11-21T09:28:14;11.79;11.70;11.50;10.64;85.01;84.99;84.91;84.37;73.11;0.56
77661;SPS30;69666;52.136;5.424;2023-11-21T09:30:45;12.48;12.35;12.09;11.13;88.93;88.90;88.82;88.18;76.30;0.56
77661;SPS30;69666;52.136;5.424;2023-11-21T09:33:16;12.77;12.62;12.32;11.31;90.31;90.28;90.18;89.49;77.36;0.56
77661;SPS30;69666;52.136;5.424;2023-11-21T09:35:46;12.64;12.51;12.26;11.29;90.21;90.18;90.09;89.46;77.42;0.56
77661;SPS30;69666;52.136;5.424;2023-11-21T09:38:17;14.22;14.08;13.78;12.69;101.35;101.32;101.22;100.50;86.96;0.55